createdAt,value
2019-02-18T00:00:30.698Z,10.47
2019-02-18T00:02:59.910Z,14.60
2019-02-18T00:05:28.989Z,14.60
2019-02-18T00:07:57.811Z,15.20
2019-02-18T00:10:26.497Z,12.30
2019-02-18T00:12:55.224Z,12.20
2019-02-18T00:15:23.975Z,13.40
2019-02-18T00:17:52.782Z,15.00
2019-02-18T00:20:21.586Z,18.97
2019-02-18T00:22:50.379Z,14.97
2019-02-18T00:25:19.183Z,16.83
2019-02-18T00:27:47.850Z,14.93
2019-02-18T00:30:16.601Z,14.53
2019-02-18T00:32:45.283Z,15.73
2019-02-18T00:35:14.097Z,13.30
2019-02-18T00:37:42.782Z,11.40
2019-02-18T00:40:11.592Z,12.50
2019-02-18T00:42:40.345Z,13.77
2019-02-18T00:45:15.275Z,14.07
2019-02-18T00:47:44.103Z,12.40
2019-02-18T00:50:12.915Z,10.27
2019-02-18T00:52:41.647Z,11.60
2019-02-18T00:55:10.451Z,11.70
2019-02-18T00:57:39.118Z,11.53
2019-02-18T01:00:17.825Z,13.33
2019-02-18T01:02:46.621Z,13.07
2019-02-18T01:05:15.389Z,12.63
2019-02-18T01:07:44.176Z,12.73
2019-02-18T01:10:13.189Z,13.43
2019-02-18T01:12:41.999Z,10.57
2019-02-18T01:15:12.947Z,11.00
2019-02-18T01:17:41.671Z,10.00
2019-02-18T01:20:14.386Z,13.80
2019-02-18T01:22:43.130Z,10.87
2019-02-18T01:25:13.126Z,8.57
2019-02-18T01:27:41.811Z,8.20
2019-02-18T01:30:13.213Z,10.83
2019-02-18T01:32:41.956Z,12.00
2019-02-18T01:35:10.767Z,10.60
2019-02-18T01:37:45.614Z,11.13
2019-02-18T01:40:12.191Z,11.40
2019-02-18T01:42:40.939Z,10.80
2019-02-18T01:45:14.226Z,11.33
2019-02-18T01:47:42.906Z,15.13
2019-02-18T01:50:15.787Z,14.97
2019-02-18T01:52:44.476Z,14.93
2019-02-18T01:55:14.085Z,16.23
2019-02-18T01:57:42.829Z,14.57
2019-02-18T02:00:14.113Z,11.07
2019-02-18T02:02:42.855Z,10.50
2019-02-18T02:05:13.935Z,11.73
2019-02-18T02:07:42.667Z,12.30
2019-02-18T02:10:13.624Z,12.53
2019-02-18T02:12:42.409Z,11.47
2019-02-18T02:15:16.544Z,8.27
2019-02-18T02:17:45.264Z,9.77
2019-02-18T02:20:14.009Z,9.90
2019-02-18T02:22:42.744Z,12.87
2019-02-18T02:25:11.505Z,14.57
2019-02-18T02:27:40.155Z,9.43
2019-02-18T02:30:10.451Z,10.90
2019-02-18T02:32:39.183Z,12.33
2019-02-18T02:35:07.925Z,12.57
2019-02-18T02:37:36.669Z,13.73
2019-02-18T02:40:08.529Z,13.23
2019-02-18T02:42:37.327Z,11.97
2019-02-18T02:45:07.780Z,12.90
2019-02-18T02:47:36.511Z,12.60
2019-02-18T02:50:06.820Z,13.63
2019-02-18T02:52:35.627Z,12.10
2019-02-18T02:55:06.094Z,14.07
2019-02-18T02:57:34.769Z,13.50
2019-02-18T03:00:05.038Z,14.37
2019-02-18T03:02:33.655Z,13.30
2019-02-18T03:05:02.341Z,14.30
2019-02-18T03:07:30.991Z,14.93
2019-02-18T03:09:59.672Z,13.67
2019-02-18T03:12:28.420Z,14.07
2019-02-18T03:14:57.083Z,12.30
2019-02-18T03:17:25.693Z,9.63
2019-02-18T03:19:54.416Z,10.70
2019-02-18T03:22:23.028Z,11.93
2019-02-18T03:25:11.584Z,12.57
2019-02-18T03:27:40.245Z,11.77
2019-02-18T03:30:34.425Z,11.87
2019-02-18T03:33:04.040Z,11.77
2019-02-18T03:35:30.968Z,15.97
2019-02-18T03:37:59.575Z,13.70
2019-02-18T03:40:28.313Z,15.17
2019-02-18T03:42:56.991Z,14.03
2019-02-18T03:45:25.801Z,13.67
2019-02-18T03:47:54.550Z,15.93
2019-02-18T03:50:23.293Z,14.63
2019-02-18T03:52:51.915Z,12.63
2019-02-18T03:55:20.564Z,13.17
2019-02-18T03:57:49.245Z,12.10
2019-02-18T04:00:18.049Z,11.53
2019-02-18T04:02:46.783Z,12.93
2019-02-18T04:05:15.466Z,14.27
2019-02-18T04:07:44.151Z,15.90
2019-02-18T04:10:12.955Z,16.83
2019-02-18T04:12:41.643Z,15.33
2019-02-18T04:15:13.098Z,16.27
2019-02-18T04:17:41.858Z,14.97
2019-02-18T04:20:10.781Z,16.73
2019-02-18T04:22:39.659Z,13.93
2019-02-18T04:25:09.931Z,12.43
2019-02-18T04:27:38.611Z,11.23
2019-02-18T04:30:10.021Z,10.80
2019-02-18T04:32:38.624Z,9.13
2019-02-18T04:35:09.371Z,8.93
2019-02-18T04:37:38.065Z,11.83
2019-02-18T04:40:10.146Z,10.73
2019-02-18T04:42:38.889Z,13.87
2019-02-18T04:45:09.903Z,12.50
2019-02-18T04:47:38.644Z,14.30
2019-02-18T04:50:08.759Z,14.27
2019-02-18T04:52:37.521Z,13.33
2019-02-18T04:55:10.921Z,14.93
2019-02-18T04:57:39.659Z,17.30
2019-02-18T05:00:10.137Z,14.17
2019-02-18T05:02:38.747Z,14.17
2019-02-18T05:05:09.472Z,13.63
2019-02-18T05:07:38.100Z,13.53
2019-02-18T05:10:09.713Z,14.50
2019-02-18T05:12:38.539Z,14.97
